Time;durP1;ratioP1;P1;durP2;ratioP2;P2;SDS_P1;SDS_P2;PMS_P1;PMS_P2;Temp;Humidity;BMP_temperature;BMP_pressure;BME280_temperature;BME280_humidity;BME280_pressure;Samples;Min_cycle;Max_cycle;Signal;HPM_P1;HPM_P2
2023/08/19 00:01:04;;;;;;;52.40;17.00;;;;;;;19.37;80.99;99317.03;5016348;28;20085;-56
2023/08/19 00:03:32;;;;;;;60.13;17.42;;;;;;;19.33;80.81;99321.59;5007385;28;20042;-55
2023/08/19 00:06:04;;;;;;;54.10;16.58;;;;;;;19.36;81.09;99323.22;5008451;28;20054;-54
2023/08/19 00:08:31;;;;;;;52.72;15.50;;;;;;;19.38;81.05;99330.06;5007568;28;20046;-57
2023/08/19 00:10:57;;;;;;;48.75;16.02;;;;;;;19.42;80.57;99338.63;5004677;28;20691;-56
2023/08/19 00:13:24;;;;;;;52.38;15.95;;;;;;;19.43;81.18;99331.63;5008838;28;20046;-55
2023/08/19 00:15:51;;;;;;;48.80;15.63;;;;;;;19.47;80.60;99322.66;5008588;28;20046;-57
2023/08/19 00:18:17;;;;;;;38.70;13.45;;;;;;;19.44;81.50;99315.78;5008853;28;20057;-54
2023/08/19 00:20:44;;;;;;;43.80;15.55;;;;;;;19.49;81.04;99321.63;5008896;28;20056;-58
2023/08/19 00:23:11;;;;;;;44.33;15.35;;;;;;;19.52;81.06;99329.38;5008952;28;20072;-55
2023/08/19 00:25:38;;;;;;;46.45;15.57;;;;;;;19.46;81.85;99327.06;5013492;28;20046;-54
2023/08/19 00:28:05;;;;;;;52.33;16.25;;;;;;;19.52;81.28;99326.75;5006564;28;20060;-57
2023/08/19 00:30:32;;;;;;;42.80;13.05;;;;;;;19.56;81.39;99331.84;5010448;28;20477;-56
2023/08/19 00:32:59;;;;;;;44.20;15.52;;;;;;;19.56;81.45;99316.06;5013161;28;20044;-58
2023/08/19 00:35:26;;;;;;;47.53;15.00;;;;;;;19.51;81.87;99319.78;5002063;28;20108;-56
2023/08/19 00:37:53;;;;;;;44.85;12.98;;;;;;;19.56;81.45;99322.19;5009524;28;20402;-57
2023/08/19 00:40:20;;;;;;;44.42;14.57;;;;;;;19.55;81.58;99309.97;5007098;28;20050;-55
2023/08/19 00:42:46;;;;;;;42.17;14.60;;;;;;;19.53;81.87;99310.03;5008530;28;20053;-52
2023/08/19 00:45:13;;;;;;;35.80;15.27;;;;;;;19.55;81.63;99322.28;5000464;28;20145;-54
2023/08/19 00:47:40;;;;;;;39.72;12.93;;;;;;;19.59;81.25;99315.91;5012435;28;20041;-57
2023/08/19 00:50:11;;;;;;;46.47;16.35;;;;;;;19.60;81.23;99331.59;5013130;28;20147;-56
2023/08/19 00:52:39;;;;;;;46.72;15.75;;;;;;;19.61;81.22;99314.91;5007686;28;20162;-55
2023/08/19 00:55:07;;;;;;;44.17;13.13;;;;;;;19.63;81.31;99314.84;5008645;28;20391;-57
2023/08/19 00:57:35;;;;;;;45.05;13.77;;;;;;;19.62;81.51;99315.78;5000356;28;20434;-58
2023/08/19 01:00:04;;;;;;;46.78;16.00;;;;;;;19.64;81.44;99303.38;5007464;28;20557;-56
2023/08/19 01:02:30;;;;;;;42.65;15.57;;;;;;;19.61;81.76;99303.53;5006501;28;20052;-55
2023/08/19 01:04:58;;;;;;;37.00;12.77;;;;;;;19.64;80.89;99309.50;5008703;28;20460;-56
2023/08/19 01:07:33;;;;;;;35.65;14.15;;;;;;;19.69;81.19;99311.88;5004914;28;20057;-57
2023/08/19 01:10:17;;;;;;;44.83;15.25;;;;;;;19.65;81.37;99310.34;5007342;28;20057;-55
2023/08/19 01:12:54;;;;;;;36.78;13.15;;;;;;;19.66;81.34;99312.06;5008803;28;20046;-59
2023/08/19 01:15:25;;;;;;;44.92;14.93;;;;;;;19.64;81.81;99309.50;5012799;28;20090;-58
2023/08/19 01:17:52;;;;;;;33.80;13.70;;;;;;;19.64;81.97;99293.75;5008465;28;20037;-56
2023/08/19 01:20:20;;;;;;;46.45;15.70;;;;;;;19.69;81.30;99290.84;5007509;28;20042;-59
2023/08/19 01:22:56;;;;;;;42.13;14.68;;;;;;;19.72;81.30;99295.94;5006848;28;20046;-57
2023/08/19 01:25:25;;;;;;;37.75;13.70;;;;;;;19.70;82.08;99296.97;5014184;28;20716;-58
2023/08/19 01:27:51;;;;;;;36.70;14.10;;;;;;;19.77;81.12;99293.94;4998070;28;20049;-56
2023/08/19 01:30:18;;;;;;;31.38;13.27;;;;;;;19.78;81.38;99290.38;5007523;28;20141;-57
2023/08/19 01:32:46;;;;;;;35.30;13.95;;;;;;;19.81;81.13;99288.50;5012658;28;20053;-53
2023/08/19 01:35:14;;;;;;;33.17;13.80;;;;;;;19.83;81.21;99289.28;5004318;28;20050;-54
2023/08/19 01:40:27;;;;;;;28.95;10.55;;;;;;;19.89;80.86;99281.06;5048801;27;20397;-56
2023/08/19 01:42:54;;;;;;;32.45;10.02;;;;;;;19.92;80.70;99296.66;5072679;28;20052;-57
2023/08/19 01:45:22;;;;;;;23.45;8.68;;;;;;;19.93;80.78;99292.25;5083004;28;20048;-50
2023/08/19 01:47:53;;;;;;;20.70;7.13;;;;;;;19.92;80.82;99286.16;5085045;28;20044;-57
2023/08/19 01:50:20;;;;;;;13.20;4.55;;;;;;;19.94;80.79;99286.94;5081267;28;20131;-54
2023/08/19 01:52:48;;;;;;;11.23;3.78;;;;;;;19.95;80.78;99291.25;5084676;28;20036;-58
2023/08/19 01:55:14;;;;;;;9.32;4.32;;;;;;;19.98;80.19;99290.22;5085031;28;20052;-58
2023/08/19 01:57:41;;;;;;;8.18;4.00;;;;;;;19.96;80.31;99298.19;5082287;28;20048;-59
2023/08/19 02:00:08;;;;;;;8.85;4.18;;;;;;;19.99;80.24;99298.06;5086026;28;20044;-52
2023/08/19 02:02:35;;;;;;;7.40;3.40;;;;;;;19.99;79.90;99303.31;5086017;28;20512;-54
2023/08/19 02:05:02;;;;;;;10.18;4.43;;;;;;;20.01;79.70;99296.22;5082813;28;20512;-58
2023/08/19 02:07:28;;;;;;;10.43;4.00;;;;;;;20.00;79.58;99283.97;5084153;28;20456;-58
2023/08/19 02:09:55;;;;;;;8.43;3.90;;;;;;;19.99;79.64;99295.44;5083495;28;20044;-57
2023/08/19 02:12:22;;;;;;;6.05;3.60;;;;;;;19.97;79.33;99299.91;5084158;28;20052;-58
2023/08/19 02:14:49;;;;;;;8.15;3.83;;;;;;;19.95;79.25;99296.50;5084417;28;20048;-56
2023/08/19 02:17:16;;;;;;;6.05;3.05;;;;;;;19.93;79.00;99289.63;5082375;28;20056;-58
2023/08/19 02:19:42;;;;;;;6.05;3.45;;;;;;;19.88;79.10;99290.72;5088754;28;20075;-56
2023/08/19 02:22:09;;;;;;;8.25;2.90;;;;;;;19.82;78.90;99290.22;5088201;28;20044;-56
2023/08/19 02:24:35;;;;;;;4.18;2.55;;;;;;;19.78;78.78;99290.38;5083779;28;20051;-54
2023/08/19 02:27:02;;;;;;;5.72;2.45;;;;;;;19.78;78.62;99295.63;5083303;28;20046;-57
2023/08/19 02:29:29;;;;;;;3.95;2.60;;;;;;;19.74;78.70;99294.09;5077420;28;20461;-55
2023/08/19 02:31:56;;;;;;;6.78;2.60;;;;;;;19.72;78.39;99280.19;5077331;28;20048;-58
2023/08/19 02:34:22;;;;;;;6.38;2.63;;;;;;;19.69;78.34;99280.34;5080213;28;20041;-57
2023/08/19 02:36:49;;;;;;;4.50;2.65;;;;;;;19.64;77.98;99277.13;5082636;28;20056;-57
2023/08/19 02:39:16;;;;;;;4.80;2.88;;;;;;;19.59;78.38;99284.41;5084905;28;20063;-57
2023/08/19 02:41:42;;;;;;;6.75;1.98;;;;;;;19.56;78.36;99284.56;5087363;28;20215;-56
2023/08/19 02:44:09;;;;;;;5.43;1.85;;;;;;;19.52;77.88;99289.97;5083935;28;20079;-55
2023/08/19 02:46:36;;;;;;;7.18;1.73;;;;;;;19.49;78.06;99284.88;5085082;28;20067;-58
2023/08/19 02:49:03;;;;;;;4.43;2.22;;;;;;;19.45;77.90;99285.97;5084531;28;20036;-57
2023/08/19 02:51:29;;;;;;;7.65;2.45;;;;;;;19.41;77.66;99281.81;5072737;28;20072;-57
2023/08/19 02:53:56;;;;;;;5.25;2.28;;;;;;;19.36;77.32;99289.06;5069184;28;20113;-54
2023/08/19 02:56:23;;;;;;;3.80;1.58;;;;;;;19.36;77.26;99299.56;5068925;28;20044;-58
2023/08/19 02:58:50;;;;;;;5.22;2.03;;;;;;;19.31;77.10;99301.56;5070558;28;20043;-59
2023/08/19 03:01:16;;;;;;;3.65;1.73;;;;;;;19.27;76.96;99301.75;5068648;28;20053;-55
2023/08/19 03:03:44;;;;;;;6.65;2.13;;;;;;;19.22;77.08;99293.25;5069748;28;20059;-59
2023/08/19 03:06:11;;;;;;;5.18;1.65;;;;;;;19.19;76.90;99293.44;5067816;28;20055;-56
2023/08/19 03:08:37;;;;;;;4.95;2.30;;;;;;;19.14;77.02;99287.53;5069314;28;20050;-54
2023/08/19 03:11:04;;;;;;;5.15;1.77;;;;;;;19.12;77.22;99307.78;5068773;28;20049;-55
2023/08/19 03:13:31;;;;;;;5.03;2.15;;;;;;;19.08;76.60;99303.63;5069625;28;20048;-51
2023/08/19 03:15:59;;;;;;;3.95;1.45;;;;;;;19.09;76.90;99311.41;5069785;28;20044;-55
2023/08/19 03:18:26;;;;;;;5.55;1.52;;;;;;;19.08;76.96;99311.50;5068726;28;20075;-59
2023/08/19 03:20:56;;;;;;;6.13;2.15;;;;;;;19.08;77.16;99307.06;5074829;28;20044;-57
2023/08/19 03:23:24;;;;;;;6.43;2.05;;;;;;;19.04;76.72;99299.41;5071133;28;20052;-56
2023/08/19 03:25:51;;;;;;;6.68;1.90;;;;;;;19.00;77.27;99299.56;5070301;28;20045;-57
2023/08/19 03:28:18;;;;;;;5.82;1.63;;;;;;;18.99;76.66;99297.00;5060294;28;20052;-55
2023/08/19 03:30:44;;;;;;;3.03;1.50;;;;;;;18.98;76.97;99308.44;5068574;28;20048;-59
2023/08/19 03:33:11;;;;;;;5.95;1.88;;;;;;;18.99;76.83;99310.97;5069040;28;20060;-56
2023/08/19 03:35:38;;;;;;;5.60;2.28;;;;;;;18.97;76.63;99304.97;5064307;28;20045;-56
2023/08/19 03:38:04;;;;;;;5.95;1.50;;;;;;;18.94;76.83;99312.97;5066595;28;20039;-59
2023/08/19 03:40:31;;;;;;;7.25;2.05;;;;;;;18.91;76.72;99320.16;5060765;28;20640;-58
2023/08/19 03:42:58;;;;;;;4.10;2.17;;;;;;;18.87;76.27;99319.44;5069036;28;20052;-56
2023/08/19 03:45:24;;;;;;;8.82;1.92;;;;;;;18.84;76.49;99320.44;5068949;28;20044;-58
2023/08/19 03:47:51;;;;;;;8.50;2.08;;;;;;;18.81;76.50;99325.84;5068826;28;20406;-56
2023/08/19 03:50:18;;;;;;;7.88;1.90;;;;;;;18.79;76.60;99326.84;5062257;28;20549;-55
2023/08/19 03:52:44;;;;;;;8.30;2.28;;;;;;;18.75;75.99;99321.75;5064662;28;20102;-59
2023/08/19 03:55:11;;;;;;;6.35;1.63;;;;;;;18.72;76.06;99340.28;5065860;28;20057;-57
2023/08/19 03:57:37;;;;;;;9.10;1.52;;;;;;;18.70;76.05;99339.50;5068940;28;20404;-63
2023/08/19 04:00:05;;;;;;;5.30;0.93;;;;;;;18.68;75.86;99340.50;5064610;28;20056;-58
2023/08/19 04:02:31;;;;;;;6.57;1.42;;;;;;;18.63;75.83;99335.47;5066571;28;20052;-59
2023/08/19 04:05:01;;;;;;;7.20;1.35;;;;;;;18.53;75.77;99336.81;5069132;28;20055;-60
2023/08/19 04:07:27;;;;;;;8.45;1.55;;;;;;;18.47;75.54;99328.31;5071851;28;20094;-60
2023/08/19 04:09:55;;;;;;;5.65;1.10;;;;;;;18.43;74.85;99333.75;5066675;28;20041;-57
2023/08/19 04:12:24;;;;;;;7.10;1.23;;;;;;;18.38;74.98;99339.25;5068557;28;20049;-58
2023/08/19 04:14:52;;;;;;;5.97;1.58;;;;;;;18.34;75.16;99350.81;5065076;28;20053;-55
2023/08/19 04:17:19;;;;;;;7.82;1.90;;;;;;;18.29;75.09;99363.25;5066985;28;20493;-59
2023/08/19 04:19:45;;;;;;;8.63;0.95;;;;;;;18.24;74.79;99355.63;5068627;28;20040;-57
2023/08/19 04:22:14;;;;;;;9.45;1.38;;;;;;;18.17;74.55;99362.88;5067540;28;20056;-58
2023/08/19 04:24:41;;;;;;;8.30;1.15;;;;;;;18.14;74.74;99364.81;5063161;28;20095;-57
2023/08/19 04:27:07;;;;;;;7.97;1.35;;;;;;;18.09;75.06;99367.63;5067302;28;20090;-58
2023/08/19 04:29:34;;;;;;;6.07;0.95;;;;;;;18.05;74.58;99369.53;5067616;28;20055;-56
2023/08/19 04:32:02;;;;;;;6.75;1.65;;;;;;;18.01;74.31;99369.72;5073404;28;20055;-55
2023/08/19 04:34:29;;;;;;;8.52;2.10;;;;;;;17.96;74.67;99376.00;5069388;28;20429;-56
2023/08/19 04:36:56;;;;;;;10.70;1.63;;;;;;;17.92;75.00;99374.44;5068277;28;20135;-52
2023/08/19 04:39:23;;;;;;;9.93;1.70;;;;;;;17.89;74.64;99374.56;5067145;28;20616;-59
2023/08/19 04:41:50;;;;;;;10.73;1.45;;;;;;;17.84;75.01;99377.38;5068219;28;20045;-57
2023/08/19 04:44:17;;;;;;;8.95;1.08;;;;;;;17.80;74.31;99386.31;5070594;28;20049;-58
2023/08/19 04:46:44;;;;;;;8.13;1.40;;;;;;;17.76;74.27;99382.13;5065219;28;20106;-58
2023/08/19 04:49:11;;;;;;;12.10;1.20;;;;;;;17.75;74.40;99387.41;5071868;28;20040;-58
2023/08/19 04:51:38;;;;;;;11.32;1.10;;;;;;;17.71;74.38;99382.34;5065731;28;20441;-58
2023/08/19 04:54:05;;;;;;;6.45;0.60;;;;;;;17.69;73.96;99388.53;5067120;28;20047;-59
2023/08/19 04:56:31;;;;;;;15.43;1.25;;;;;;;17.66;74.29;99383.44;5067645;28;20053;-59
2023/08/19 04:59:00;;;;;;;11.82;1.45;;;;;;;17.64;73.79;99394.00;5060651;28;20040;-57
2023/08/19 05:01:27;;;;;;;9.68;1.15;;;;;;;17.60;74.23;99395.03;5065571;28;20586;-57
2023/08/19 05:03:55;;;;;;;12.15;1.48;;;;;;;17.61;74.05;99404.59;5067243;28;20044;-59
2023/08/19 05:06:22;;;;;;;8.68;1.10;;;;;;;17.62;73.73;99408.91;5067655;28;20052;-57
2023/08/19 05:08:48;;;;;;;12.75;1.40;;;;;;;17.63;74.73;99405.34;5067071;28;20068;-58
2023/08/19 05:11:15;;;;;;;8.68;1.23;;;;;;;17.63;74.27;99409.75;5066591;28;20052;-58
2023/08/19 05:13:42;;;;;;;8.75;1.63;;;;;;;17.65;74.67;99408.78;5067780;28;20409;-59
2023/08/19 05:16:09;;;;;;;6.28;0.93;;;;;;;17.68;73.92;99416.50;5066920;28;20127;-57
2023/08/19 05:18:39;;;;;;;11.30;1.45;;;;;;;17.73;74.05;99426.75;5067247;28;20081;-57
2023/08/19 05:21:06;;;;;;;10.85;1.52;;;;;;;17.75;74.11;99426.69;5068910;28;20044;-57
2023/08/19 05:23:32;;;;;;;7.20;0.95;;;;;;;17.76;74.11;99421.41;5066682;28;20489;-55
2023/08/19 05:25:59;;;;;;;9.50;1.13;;;;;;;17.75;74.67;99429.31;5066615;28;20048;-55
2023/08/19 05:28:26;;;;;;;10.27;1.33;;;;;;;17.75;74.01;99429.31;5066643;28;20048;-58
2023/08/19 05:30:53;;;;;;;8.70;1.50;;;;;;;17.75;74.31;99439.78;5070060;28;20036;-58
2023/08/19 05:33:19;;;;;;;6.32;1.10;;;;;;;17.78;74.39;99442.28;5064448;28;20048;-57
2023/08/19 05:35:46;;;;;;;6.70;1.38;;;;;;;17.80;73.90;99446.53;5064095;28;20036;-58
2023/08/19 05:38:13;;;;;;;9.27;1.33;;;;;;;17.83;74.49;99442.94;5068567;28;20106;-59
2023/08/19 05:40:39;;;;;;;8.32;1.17;;;;;;;17.84;74.09;99449.91;5066884;28;20052;-58
2023/08/19 05:43:06;;;;;;;9.38;1.42;;;;;;;17.86;73.86;99456.78;5066732;28;20040;-56
2023/08/19 05:45:33;;;;;;;12.95;1.70;;;;;;;17.87;74.13;99452.41;5064557;28;20044;-59
2023/08/19 05:48:00;;;;;;;10.60;1.15;;;;;;;17.86;73.90;99456.78;5064596;28;20048;-58
2023/08/19 05:50:27;;;;;;;8.52;0.98;;;;;;;17.91;73.84;99460.97;5066561;28;20050;-59
2023/08/19 05:52:53;;;;;;;7.45;0.82;;;;;;;17.90;74.32;99460.09;5067490;28;20055;-57
2023/08/19 05:55:20;;;;;;;9.63;1.48;;;;;;;17.88;74.87;99456.72;5066418;28;20048;-57
2023/08/19 05:57:46;;;;;;;14.55;1.77;;;;;;;17.85;74.85;99462.06;5060619;28;20049;-58
2023/08/19 06:00:13;;;;;;;13.40;1.75;;;;;;;17.87;74.24;99455.00;5065698;28;20056;-59
2023/08/19 06:02:40;;;;;;;9.68;1.58;;;;;;;17.88;74.09;99461.94;5062514;28;20050;-58
2023/08/19 06:05:07;;;;;;;9.35;1.25;;;;;;;17.87;74.04;99465.50;5067342;28;20094;-58
2023/08/19 06:07:34;;;;;;;8.85;1.90;;;;;;;17.88;74.66;99461.94;5065692;28;20447;-60
2023/08/19 06:10:01;;;;;;;10.48;1.67;;;;;;;17.87;74.71;99462.88;5064100;28;20051;-59
2023/08/19 06:12:28;;;;;;;12.93;1.50;;;;;;;17.93;74.71;99474.84;5065929;28;20448;-55
2023/08/19 06:14:54;;;;;;;10.43;1.40;;;;;;;17.96;74.74;99482.56;5066217;28;20040;-56
2023/08/19 06:17:21;;;;;;;12.80;1.10;;;;;;;17.99;74.34;99496.41;5073457;28;20063;-57
2023/08/19 06:19:47;;;;;;;8.98;0.90;;;;;;;17.99;74.59;99491.16;5066916;28;20041;-60
2023/08/19 06:22:14;;;;;;;5.28;0.80;;;;;;;18.00;74.24;99492.00;5066468;28;20606;-59
2023/08/19 06:24:41;;;;;;;8.07;1.35;;;;;;;18.01;74.26;99503.34;5069932;28;20413;-58
2023/08/19 06:27:07;;;;;;;9.13;1.77;;;;;;;18.07;73.73;99508.34;5069262;28;20083;-60
2023/08/19 06:29:34;;;;;;;10.15;0.98;;;;;;;18.10;73.83;99514.31;5069880;28;20686;-58
2023/08/19 06:32:01;;;;;;;9.52;1.70;;;;;;;18.19;73.73;99518.31;5070455;28;20048;-59
2023/08/19 06:34:28;;;;;;;3.40;1.02;;;;;;;18.20;74.30;99514.75;5067973;28;20052;-58
2023/08/19 06:36:57;;;;;;;7.40;1.55;;;;;;;18.24;73.81;99518.94;5066233;28;20076;-59
2023/08/19 06:39:26;;;;;;;3.72;0.85;;;;;;;18.24;74.12;99511.09;5072163;28;20044;-59
2023/08/19 06:42:02;;;;;;;8.02;1.08;;;;;;;18.27;73.84;99525.00;5069997;28;20071;-60
2023/08/19 06:44:30;;;;;;;7.80;2.08;;;;;;;18.42;73.93;99524.31;5061017;28;20078;-58
2023/08/19 06:46:57;;;;;;;11.10;1.30;;;;;;;18.87;74.08;99524.94;5070303;28;20490;-60
2023/08/19 06:49:24;;;;;;;8.35;1.55;;;;;;;19.34;73.11;99533.31;5069804;28;20045;-60
2023/08/19 06:51:51;;;;;;;5.72;1.52;;;;;;;19.74;71.66;99532.31;5067219;28;20497;-60
2023/08/19 06:54:18;;;;;;;4.47;1.20;;;;;;;20.08;71.01;99533.28;5059369;28;20120;-61
2023/08/19 06:57:07;;;;;;;16.20;1.90;;;;;;;20.43;69.85;99540.28;5069790;28;20048;-59
2023/08/19 06:59:36;;;;;;;;;;;;;;;20.86;70.17;99549.44;5068219;28;20135;-58
2023/08/19 07:02:06;;;;;;;6.10;1.52;;;;;;;21.18;68.61;99552.16;5066424;28;20321;-60
2023/08/19 07:04:33;;;;;;;5.15;1.40;;;;;;;21.50;67.71;99559.19;5068720;28;20044;-60
2023/08/19 07:07:03;;;;;;;8.77;1.15;;;;;;;21.76;66.91;99563.03;5076316;28;20047;-60
2023/08/19 07:09:34;;;;;;;7.25;1.88;;;;;;;22.08;67.22;99567.34;5069715;28;20048;-59
2023/08/19 07:12:02;;;;;;;7.35;1.10;;;;;;;22.47;67.11;99571.19;5069372;28;20051;-58
2023/08/19 07:14:29;;;;;;;7.80;1.13;;;;;;;22.79;65.37;99564.91;5070352;28;20135;-60
2023/08/19 07:17:00;;;;;;;11.98;1.63;;;;;;;23.00;64.33;99575.06;5067623;28;20048;-60
2023/08/19 07:19:37;;;;;;;6.50;2.08;;;;;;;23.21;63.06;99569.41;5069965;28;20036;-59
2023/08/19 07:22:04;;;;;;;6.43;1.15;;;;;;;23.47;62.97;99580.13;5068372;28;20678;-58
2023/08/19 07:24:31;;;;;;;3.40;0.80;;;;;;;23.59;61.26;99584.63;5066475;28;20501;-60
2023/08/19 07:27:01;;;;;;;3.60;0.70;;;;;;;23.74;61.68;99577.47;5068949;28;20048;-61
2023/08/19 07:29:28;;;;;;;4.63;1.48;;;;;;;23.90;60.68;99578.25;5071035;28;20052;-59
2023/08/19 07:31:57;;;;;;;6.43;0.95;;;;;;;24.01;60.23;99579.25;5072575;28;20481;-61
2023/08/19 07:34:23;;;;;;;8.38;1.00;;;;;;;24.23;59.39;99592.84;5070967;28;20047;-61
2023/08/19 07:36:50;;;;;;;14.00;1.50;;;;;;;24.44;59.67;99595.84;5074075;28;20048;-59
2023/08/19 07:39:17;;;;;;;2.85;0.63;;;;;;;24.52;58.44;99592.69;5069762;28;20070;-61
2023/08/19 07:41:44;;;;;;;8.13;1.15;;;;;;;24.44;58.49;99601.13;5068975;28;20075;-61
2023/08/19 07:44:11;;;;;;;7.30;0.68;;;;;;;24.57;59.83;99610.88;5067689;28;20496;-61
2023/08/19 07:46:37;;;;;;;5.80;1.13;;;;;;;24.78;58.59;99604.09;5067917;28;20090;-61
2023/08/19 07:49:04;;;;;;;5.35;1.25;;;;;;;24.48;58.33;99607.03;5066470;28;20040;-60
2023/08/19 07:51:31;;;;;;;4.80;0.80;;;;;;;24.00;57.56;99609.28;5067652;28;20052;-60
2023/08/19 07:53:57;;;;;;;3.63;0.95;;;;;;;23.67;58.93;99620.28;5071490;28;20048;-61
2023/08/19 07:56:24;;;;;;;5.93;1.42;;;;;;;23.42;59.56;99630.63;5068282;28;20412;-62
2023/08/19 07:58:51;;;;;;;8.60;1.25;;;;;;;23.13;59.14;99614.78;5061056;28;20048;-61
2023/08/19 08:01:17;;;;;;;6.10;0.80;;;;;;;22.93;60.01;99629.25;5069247;28;20041;-61
2023/08/19 08:03:44;;;;;;;6.43;1.20;;;;;;;22.77;59.76;99622.25;5066451;28;20083;-61
2023/08/19 08:06:11;;;;;;;6.20;1.20;;;;;;;22.62;60.78;99631.09;5068067;28;20048;-61
2023/08/19 08:08:38;;;;;;;4.80;0.73;;;;;;;22.48;60.63;99619.53;5067782;28;20063;-62
2023/08/19 08:11:05;;;;;;;6.25;0.93;;;;;;;22.49;61.18;99621.22;5068713;28;20043;-61
2023/08/19 08:13:32;;;;;;;4.80;1.05;;;;;;;22.69;60.25;99617.44;5060157;28;20086;-62
2023/08/19 08:15:59;;;;;;;3.45;0.43;;;;;;;23.22;59.96;99619.50;5067891;28;20040;-61
2023/08/19 08:18:26;;;;;;;5.30;1.23;;;;;;;23.81;59.58;99622.84;5066380;28;20529;-61
2023/08/19 08:20:53;;;;;;;2.42;1.05;;;;;;;24.41;58.31;99617.22;5064439;28;20048;-61
2023/08/19 08:23:20;;;;;;;5.38;1.30;;;;;;;24.81;57.30;99632.16;5065088;28;20057;-61
2023/08/19 08:25:46;;;;;;;5.70;0.63;;;;;;;25.26;56.82;99644.13;5066138;28;20059;-61
2023/08/19 08:28:13;;;;;;;5.40;0.73;;;;;;;25.48;54.82;99642.56;5071282;28;20040;-61
2023/08/19 08:30:40;;;;;;;4.68;1.02;;;;;;;25.58;54.69;99656.91;5067860;28;20052;-61
2023/08/19 08:33:08;;;;;;;4.97;1.15;;;;;;;25.63;55.15;99660.06;5074936;28;20040;-62
2023/08/19 08:35:35;;;;;;;3.33;0.40;;;;;;;25.69;54.68;99666.72;5067650;28;20044;-62
2023/08/19 08:38:02;;;;;;;5.80;1.02;;;;;;;25.58;54.62;99664.84;5067464;28;20055;-61
2023/08/19 08:40:31;;;;;;;3.33;0.57;;;;;;;25.37;54.55;99668.03;5067157;28;20043;-61
2023/08/19 08:43:02;;;;;;;6.03;0.80;;;;;;;25.04;55.23;99666.81;5067603;28;20045;-62
2023/08/19 08:45:31;;;;;;;6.47;0.80;;;;;;;24.75;55.00;99674.94;5067572;28;20048;-61
2023/08/19 08:48:00;;;;;;;3.15;1.08;;;;;;;24.49;55.37;99689.00;5068913;28;20066;-61
2023/08/19 08:50:28;;;;;;;5.78;0.93;;;;;;;24.29;55.42;99687.69;5067442;28;20051;-61
2023/08/19 08:52:56;;;;;;;5.70;0.50;;;;;;;24.22;55.91;99687.25;5067896;28;20049;-62
2023/08/19 08:55:23;;;;;;;4.22;0.63;;;;;;;24.18;55.73;99684.91;5060695;28;20067;-62
2023/08/19 08:57:50;;;;;;;5.57;0.65;;;;;;;24.03;55.18;99681.44;5063269;28;20052;-62
2023/08/19 09:00:17;;;;;;;4.13;0.93;;;;;;;23.91;55.83;99705.06;5067259;28;20045;-63
2023/08/19 09:02:45;;;;;;;7.85;0.85;;;;;;;23.80;55.83;99697.84;5067048;28;20045;-60
2023/08/19 09:05:13;;;;;;;3.22;0.77;;;;;;;23.68;55.56;99701.28;5067853;28;20044;-62
2023/08/19 09:07:41;;;;;;;4.47;0.63;;;;;;;23.68;56.06;99698.63;5065969;28;20090;-61
2023/08/19 09:10:12;;;;;;;7.35;0.95;;;;;;;23.56;55.14;99701.09;5067578;28;20052;-61
2023/08/19 09:12:43;;;;;;;10.52;0.93;;;;;;;23.66;55.69;99697.88;5070707;28;20049;-62
2023/08/19 09:15:11;;;;;;;4.65;0.40;;;;;;;23.87;55.52;99693.88;5062013;28;20041;-61
2023/08/19 09:17:39;;;;;;;5.40;1.23;;;;;;;24.13;56.11;99699.28;5066852;28;20048;-60
2023/08/19 09:20:08;;;;;;;3.30;0.40;;;;;;;24.56;54.99;99705.34;5074424;28;20055;-61
2023/08/19 09:22:38;;;;;;;4.68;0.73;;;;;;;25.00;54.35;99707.72;5068108;28;20055;-62
2023/08/19 09:25:06;;;;;;;5.45;0.80;;;;;;;25.35;54.61;99722.97;5067332;28;20140;-62
2023/08/19 09:27:33;;;;;;;3.20;0.60;;;;;;;25.34;53.62;99713.34;5065755;28;20630;-61
2023/08/19 09:30:00;;;;;;;5.38;1.30;;;;;;;25.20;53.75;99719.59;5068897;28;20041;-62
2023/08/19 09:32:29;;;;;;;5.53;1.20;;;;;;;25.37;53.76;99715.75;5066888;28;20053;-62
2023/08/19 09:35:07;;;;;;;6.20;0.60;;;;;;;25.60;53.89;99721.25;5064313;28;20071;-62
2023/08/19 09:37:36;;;;;;;5.93;0.63;;;;;;;25.74;53.19;99716.78;5065383;28;20618;-62
2023/08/19 09:40:08;;;;;;;6.28;1.10;;;;;;;25.95;53.24;99724.13;5058585;28;20044;-62
2023/08/19 09:42:36;;;;;;;2.78;0.50;;;;;;;26.17;51.79;99728.69;5067169;28;20041;-62
2023/08/19 09:45:04;;;;;;;4.65;0.35;;;;;;;26.32;51.33;99732.06;5066613;28;20048;-61
2023/08/19 09:47:44;;;;;;;2.72;0.98;;;;;;;26.53;51.71;99734.06;5065126;28;20087;-60
2023/08/19 09:50:11;;;;;;;3.97;0.70;;;;;;;26.80;51.79;99748.88;5069267;28;20048;-62
2023/08/19 09:52:38;;;;;;;4.32;0.52;;;;;;;26.84;50.32;99746.84;5065230;28;20049;-61
2023/08/19 09:55:06;;;;;;;5.65;0.68;;;;;;;26.83;50.63;99756.63;5063406;28;20055;-61
2023/08/19 09:57:34;;;;;;;7.00;0.60;;;;;;;26.83;50.98;99746.00;5062333;28;20048;-60
2023/08/19 10:00:04;;;;;;;3.70;0.80;;;;;;;26.83;49.84;99756.63;5065598;28;20041;-60
2023/08/19 10:02:31;;;;;;;2.00;0.55;;;;;;;26.71;49.56;99752.25;5070258;28;20048;-60
2023/08/19 10:04:58;;;;;;;2.40;0.52;;;;;;;26.58;50.04;99758.50;5070976;28;20083;-60
2023/08/19 10:07:33;;;;;;;1.92;0.73;;;;;;;26.42;49.50;99764.94;5069228;28;20406;-62
2023/08/19 10:10:03;;;;;;;4.03;0.90;;;;;;;26.30;50.42;99771.13;5068999;28;20043;-62
2023/08/19 10:12:34;;;;;;;2.22;0.85;;;;;;;26.20;50.33;99767.47;5070476;28;20053;-62
2023/08/19 10:15:03;;;;;;;2.08;0.80;;;;;;;26.17;50.80;99777.31;5070307;28;20121;-61
2023/08/19 10:17:32;;;;;;;5.82;0.80;;;;;;;26.10;49.86;99776.06;5070940;28;20049;-62
2023/08/19 10:20:05;;;;;;;5.65;1.52;;;;;;;25.97;49.51;99773.47;5071647;28;20044;-61
2023/08/19 10:22:36;;;;;;;2.60;1.05;;;;;;;25.88;49.69;99772.34;5065888;28;20040;-62
2023/08/19 10:25:04;;;;;;;3.30;1.50;;;;;;;25.74;49.46;99761.88;5073027;28;20045;-62
2023/08/19 10:27:31;;;;;;;3.15;1.25;;;;;;;25.68;50.00;99765.78;5069742;28;20063;-61
2023/08/19 10:29:58;;;;;;;3.83;0.88;;;;;;;25.73;50.78;99766.31;5071298;28;20040;-62
2023/08/19 10:32:29;;;;;;;2.42;1.10;;;;;;;25.95;50.82;99771.88;5069782;28;20041;-60
2023/08/19 10:35:04;;;;;;;3.42;0.88;;;;;;;26.17;50.74;99781.78;5072243;28;20093;-61
2023/08/19 10:37:32;;;;;;;3.83;0.90;;;;;;;26.36;49.94;99783.13;5065281;28;20056;-61
2023/08/19 10:42:56;;;;;;;1.60;0.52;;;;;;;26.58;49.76;99785.03;5038481;28;20410;-61
2023/08/19 10:45:29;;;;;;;3.17;0.93;;;;;;;26.52;48.22;99790.81;5016938;28;20049;-61
2023/08/19 10:47:56;;;;;;;3.38;0.50;;;;;;;26.46;48.58;99792.09;5022958;28;20045;-61
2023/08/19 10:50:25;;;;;;;3.53;0.88;;;;;;;26.50;49.52;99800.69;5023069;28;20042;-61
2023/08/19 10:53:01;;;;;;;3.20;0.75;;;;;;;26.64;49.69;99795.19;5024374;28;20132;-61
2023/08/19 10:55:28;;;;;;;4.25;0.77;;;;;;;26.87;50.05;99805.91;5022414;28;20041;-62
2023/08/19 10:57:56;;;;;;;2.15;0.95;;;;;;;27.04;49.34;99809.97;5022913;28;20049;-60
2023/08/19 11:00:30;;;;;;;3.97;0.77;;;;;;;27.08;47.50;99810.56;5022862;28;20049;-61
2023/08/19 11:02:57;;;;;;;4.80;0.85;;;;;;;27.01;47.84;99817.31;5021606;28;20060;-60
2023/08/19 11:05:25;;;;;;;3.42;1.20;;;;;;;27.00;48.76;99812.97;5025158;28;20129;-61
2023/08/19 11:07:54;;;;;;;3.63;0.82;;;;;;;26.94;47.63;99823.06;5063442;28;20048;-61
2023/08/19 11:10:21;;;;;;;6.47;1.50;;;;;;;26.94;49.03;99822.22;5057253;28;20049;-61
2023/08/19 11:12:49;;;;;;;3.45;1.27;;;;;;;27.06;48.38;99823.97;5063277;28;20073;-61
2023/08/19 11:15:24;;;;;;;2.90;0.65;;;;;;;27.15;48.20;99825.09;5062650;28;20043;-61
2023/08/19 11:17:51;;;;;;;2.90;0.80;;;;;;;27.24;48.26;99833.31;5062904;28;20055;-61
2023/08/19 11:20:19;;;;;;;5.78;1.23;;;;;;;27.27;48.27;99838.41;5054123;28;20048;-61
2023/08/19 11:22:47;;;;;;;2.13;0.90;;;;;;;27.29;48.48;99825.84;5062783;28;20056;-61
2023/08/19 11:25:15;;;;;;;2.97;0.88;;;;;;;27.22;47.11;99840.56;5062726;28;20044;-61
2023/08/19 11:27:42;;;;;;;2.70;0.98;;;;;;;27.10;47.68;99829.91;5059276;28;20068;-61
2023/08/19 11:30:10;;;;;;;4.80;1.02;;;;;;;27.06;47.75;99845.22;5062639;28;20036;-61
2023/08/19 11:32:37;;;;;;;1.77;0.60;;;;;;;27.05;48.17;99845.38;5062400;28;20512;-61
2023/08/19 11:35:04;;;;;;;3.30;0.95;;;;;;;27.16;48.16;99858.69;5062917;28;20047;-60
2023/08/19 11:37:31;;;;;;;4.53;0.82;;;;;;;27.29;47.52;99863.06;5061460;28;20042;-61